Time;durP1;ratioP1;P1;durP2;ratioP2;P2;SDS_P1;SDS_P2;PMS_P1;PMS_P2;Temp;Humidity;BMP_temperature;BMP_pressure;BME280_temperature;BME280_humidity;BME280_pressure;Samples;Min_cycle;Max_cycle;Signal;HPM_P1;HPM_P2
2022/11/27 00:00:28;;;;;;;572.25;66.30;;;-0.10;99.90;;;;;;6166474;23;20028;-85
2022/11/27 00:03:19;;;;;;;497.65;58.55;;;-0.10;99.90;;;;;;6187436;23;20036;-85
2022/11/27 00:06:15;;;;;;;795.22;73.82;;;-0.10;99.90;;;;;;6166780;23;20108;-85
2022/11/27 00:09:04;;;;;;;475.42;56.70;;;-0.20;99.90;;;;;;6186682;23;20087;-85
2022/11/27 00:11:52;;;;;;;211.70;48.00;;;-0.20;99.90;;;;;;6185424;23;20057;-85
2022/11/27 00:14:39;;;;;;;406.92;51.85;;;-0.20;99.90;;;;;;6189266;23;20035;-85
2022/11/27 00:17:26;;;;;;;212.32;41.78;;;-0.30;99.90;;;;;;6185956;23;20048;-85
2022/11/27 00:20:16;;;;;;;218.68;42.05;;;;;;;;;;6185055;23;20025;-85
2022/11/27 00:23:04;;;;;;;140.27;39.83;;;-0.30;99.90;;;;;;6188431;23;20421;-86
2022/11/27 00:25:52;;;;;;;132.70;36.95;;;-0.40;99.90;;;;;;6187551;23;20025;-85
2022/11/27 00:28:42;;;;;;;144.30;37.00;;;-0.40;99.90;;;;;;6185734;23;20052;-86
2022/11/27 00:31:36;;;;;;;92.13;30.98;;;-0.40;99.90;;;;;;6186680;23;20432;-86
2022/11/27 00:34:24;;;;;;;119.88;33.25;;;-0.50;99.90;;;;;;6189305;23;20021;-85
2022/11/27 00:37:13;;;;;;;400.80;46.08;;;-0.50;99.90;;;;;;6169897;23;20021;-85
2022/11/27 00:40:01;;;;;;;267.48;43.28;;;-0.60;99.90;;;;;;6188303;23;20025;-86
2022/11/27 00:42:54;;;;;;;108.50;35.25;;;-0.60;99.90;;;;;;6191460;23;20103;-85
2022/11/27 00:45:41;;;;;;;104.28;32.97;;;-0.60;99.90;;;;;;6188994;23;20096;-84
2022/11/27 00:48:28;;;;;;;80.90;29.52;;;-0.70;99.90;;;;;;6186994;23;20036;-84
2022/11/27 00:51:19;;;;;;;75.68;28.13;;;-0.70;99.90;;;;;;6167727;23;20418;-85
2022/11/27 00:54:07;;;;;;;66.82;25.95;;;-0.80;99.90;;;;;;6190513;23;20048;-84
2022/11/27 00:56:54;;;;;;;63.90;26.65;;;-0.90;99.90;;;;;;6189038;23;20025;-84
2022/11/27 00:59:41;;;;;;;65.05;26.23;;;-0.90;99.90;;;;;;6190295;23;20096;-85
2022/11/27 01:02:29;;;;;;;91.82;36.40;;;-1.00;99.90;;;;;;6190799;23;20318;-85
2022/11/27 01:05:19;;;;;;;103.88;41.08;;;-0.90;99.90;;;;;;6190248;23;20036;-85
2022/11/27 01:08:06;;;;;;;96.45;35.50;;;-0.80;99.90;;;;;;6167979;23;20047;-84
2022/11/27 01:10:56;;;;;;;130.40;37.97;;;-0.90;99.90;;;;;;6187993;23;20049;-83
2022/11/27 01:13:44;;;;;;;180.90;35.97;;;-0.90;99.90;;;;;;6189499;23;20111;-84
2022/11/27 01:16:34;;;;;;;279.42;38.50;;;-1.00;99.90;;;;;;6189585;23;20021;-84
2022/11/27 01:19:23;;;;;;;79.68;32.00;;;-1.10;99.90;;;;;;6169269;23;20446;-84
2022/11/27 01:22:10;;;;;;;69.50;29.52;;;-1.20;99.90;;;;;;6188697;23;20072;-84
2022/11/27 01:24:58;;;;;;;85.75;32.13;;;-1.30;99.90;;;;;;6194133;23;20090;-84
2022/11/27 01:27:45;;;;;;;407.90;44.40;;;-1.40;99.90;;;;;;6197475;23;20025;-84
2022/11/27 01:30:32;;;;;;;637.75;56.40;;;-1.30;99.90;;;;;;6195621;23;20029;-85
2022/11/27 01:33:20;;;;;;;583.70;57.88;;;-1.30;99.90;;;;;;6198718;23;20025;-83
2022/11/27 01:36:09;;;;;;;316.02;40.70;;;-1.40;99.90;;;;;;6213116;23;20073;-83
2022/11/27 01:38:56;;;;;;;92.38;30.00;;;-1.40;99.90;;;;;;6213870;23;20043;-82
2022/11/27 01:41:47;;;;;;;68.70;28.20;;;-1.30;99.90;;;;;;6202788;23;20025;-85
2022/11/27 01:44:34;;;;;;;70.53;28.98;;;-1.30;99.90;;;;;;6182194;23;20024;-84
2022/11/27 01:47:35;;;;;;;64.90;26.83;;;-1.30;99.90;;;;;;6204433;23;20368;-84
2022/11/27 01:50:42;;;;;;;64.20;25.83;;;-1.40;99.90;;;;;;6197479;23;20029;-84
2022/11/27 01:53:29;;;;;;;69.65;26.08;;;-1.50;99.90;;;;;;6190707;23;20029;-84
2022/11/27 01:56:17;;;;;;;61.03;25.38;;;-1.50;99.90;;;;;;6191833;23;20083;-85
2022/11/27 01:59:04;;;;;;;59.92;26.13;;;-1.60;99.90;;;;;;6192271;23;20115;-84
2022/11/27 02:01:52;;;;;;;71.75;28.75;;;-1.50;99.90;;;;;;6189040;23;20029;-85
2022/11/27 02:04:39;;;;;;;58.90;26.42;;;-1.40;99.90;;;;;;6189634;23;20052;-85
2022/11/27 02:07:26;;;;;;;68.30;28.95;;;-1.40;99.90;;;;;;6172597;23;20053;-84
2022/11/27 02:10:15;;;;;;;61.90;27.35;;;-1.40;99.90;;;;;;6171634;23;20102;-84
2022/11/27 02:13:15;;;;;;;63.47;27.00;;;-1.40;99.90;;;;;;6191004;23;20040;-85
2022/11/27 02:16:16;;;;;;;57.05;25.48;;;-1.30;99.90;;;;;;6190252;23;20033;-86
2022/11/27 02:19:22;;;;;;;61.55;26.02;;;-1.30;99.90;;;;;;6190443;23;20064;-85
2022/11/27 02:22:46;;;;;;;53.10;25.63;;;-1.30;99.90;;;;;;6167890;23;20099;-84
2022/11/27 02:25:44;;;;;;;57.92;25.48;;;-1.30;99.90;;;;;;6187060;23;20067;-85
2022/11/27 02:28:59;;;;;;;59.88;24.98;;;-1.30;99.90;;;;;;6168702;23;20048;-85
2022/11/27 02:32:13;;;;;;;57.67;24.52;;;-1.30;99.90;;;;;;6189685;23;20052;-84
2022/11/27 02:35:03;;;;;;;50.78;22.70;;;-1.30;99.90;;;;;;6185343;23;20029;-85
2022/11/27 02:37:58;;;;;;;55.47;24.95;;;-1.40;99.90;;;;;;6187955;23;20099;-85
2022/11/27 02:40:49;;;;;;;60.90;25.50;;;-1.50;99.90;;;;;;6187356;23;20025;-84
2022/11/27 02:43:39;;;;;;;57.20;25.30;;;-1.50;99.90;;;;;;6186828;23;20056;-85
2022/11/27 02:46:28;;;;;;;51.08;23.98;;;-1.50;99.90;;;;;;6188287;23;20067;-85
2022/11/27 02:49:18;;;;;;;56.10;23.70;;;-1.60;99.90;;;;;;6167171;23;20085;-85
2022/11/27 02:52:10;;;;;;;66.55;24.05;;;-1.70;99.90;;;;;;6167595;23;20025;-85
2022/11/27 02:55:02;;;;;;;52.05;22.60;;;-1.90;99.90;;;;;;6189850;23;20100;-85
2022/11/27 02:57:55;;;;;;;56.45;23.80;;;-1.90;99.90;;;;;;6186973;23;20025;-86
2022/11/27 03:00:45;;;;;;;49.70;23.52;;;-1.90;99.90;;;;;;6197232;23;20119;-85
2022/11/27 03:03:37;;;;;;;51.88;23.25;;;-1.90;99.90;;;;;;6178776;23;20402;-86
2022/11/27 03:06:33;;;;;;;48.88;23.42;;;-1.90;99.90;;;;;;6194756;23;20021;-86
2022/11/27 03:09:29;;;;;;;44.42;21.88;;;-1.90;99.90;;;;;;6188396;23;20028;-85
2022/11/27 03:12:17;;;;;;;43.67;21.70;;;-1.90;99.90;;;;;;6189729;23;20104;-85
2022/11/27 03:15:05;;;;;;;48.17;21.27;;;-1.80;99.90;;;;;;6188510;23;20021;-85
2022/11/27 03:18:00;;;;;;;46.33;21.05;;;-1.80;99.90;;;;;;6166656;23;20092;-84
2022/11/27 03:20:58;;;;;;;44.97;20.27;;;-1.80;99.90;;;;;;6188703;23;20044;-85
2022/11/27 03:23:47;;;;;;;40.78;19.38;;;-1.90;99.90;;;;;;6188114;23;20100;-85
2022/11/27 03:26:36;;;;;;;47.80;21.40;;;-1.90;99.90;;;;;;6186571;23;20032;-85
2022/11/27 03:29:29;;;;;;;44.80;21.88;;;-1.90;99.90;;;;;;6166129;23;20044;-85
2022/11/27 03:32:17;;;;;;;41.72;21.15;;;-1.70;99.90;;;;;;6186261;23;20448;-87
2022/11/27 03:35:08;;;;;;;39.20;20.08;;;-1.70;99.90;;;;;;6164268;23;20036;-85
2022/11/27 03:37:55;;;;;;;40.15;20.30;;;-1.70;99.90;;;;;;6189265;23;20021;-85
2022/11/27 03:41:08;;;;;;;39.15;20.52;;;-1.80;99.90;;;;;;6166120;23;20049;-84
2022/11/27 03:44:09;;;;;;;33.25;18.48;;;-1.90;99.90;;;;;;6186426;23;20021;-85
2022/11/27 03:47:02;;;;;;;37.95;19.63;;;-2.00;99.90;;;;;;6186363;23;20091;-86
2022/11/27 03:50:06;;;;;;;35.78;18.30;;;-2.10;99.90;;;;;;6165622;23;20601;-86
2022/11/27 03:53:00;;;;;;;37.05;19.15;;;-2.10;99.90;;;;;;6188668;23;20479;-85
2022/11/27 03:56:14;;;;;;;35.63;18.27;;;-2.00;99.90;;;;;;6185953;23;20021;-86
2022/11/27 03:59:14;;;;;;;40.35;19.48;;;-2.00;99.90;;;;;;6162855;23;20076;-86
2022/11/27 04:02:01;;;;;;;37.42;17.77;;;-2.10;99.90;;;;;;6188896;23;20108;-85
2022/11/27 04:04:48;;;;;;;35.72;18.05;;;-2.20;99.90;;;;;;6186031;23;20337;-85
2022/11/27 04:07:38;;;;;;;30.35;17.27;;;-2.20;99.90;;;;;;6187642;23;20255;-85
2022/11/27 04:10:25;;;;;;;37.00;18.75;;;-2.20;99.90;;;;;;6188854;23;20111;-86
2022/11/27 04:13:13;;;;;;;38.95;17.88;;;-2.30;99.90;;;;;;6187510;23;20035;-85
2022/11/27 04:16:01;;;;;;;35.60;17.42;;;-2.30;99.90;;;;;;6187816;23;20024;-86
2022/11/27 04:18:48;;;;;;;32.55;17.55;;;-2.30;99.90;;;;;;6186403;23;20025;-86
2022/11/27 04:21:35;;;;;;;36.72;18.10;;;-2.30;99.90;;;;;;6166797;23;20329;-85
2022/11/27 04:24:22;;;;;;;36.03;18.13;;;-2.20;99.90;;;;;;6186280;23;20100;-86
2022/11/27 04:27:10;;;;;;;32.78;17.75;;;-2.10;99.90;;;;;;6189243;23;20032;-84
2022/11/27 04:29:57;;;;;;;34.78;17.77;;;-2.10;99.90;;;;;;6188570;23;20358;-85
2022/11/27 04:32:44;;;;;;;34.05;18.33;;;-2.10;99.90;;;;;;6184651;23;20025;-86
2022/11/27 04:35:31;;;;;;;28.63;15.82;;;-2.20;99.90;;;;;;6166036;23;20024;-85
2022/11/27 04:38:20;;;;;;;32.78;17.58;;;-2.20;99.90;;;;;;6184207;23;20079;-85
2022/11/27 04:41:10;;;;;;;35.85;17.40;;;-2.30;99.90;;;;;;6167399;23;20032;-85
2022/11/27 04:43:57;;;;;;;35.50;16.80;;;-2.40;99.90;;;;;;6187594;23;20073;-85
2022/11/27 04:46:44;;;;;;;37.67;17.92;;;-2.40;99.90;;;;;;6186899;23;20021;-85
2022/11/27 04:49:40;;;;;;;36.72;18.38;;;-2.30;99.90;;;;;;6188302;23;20029;-86
2022/11/27 04:52:27;;;;;;;32.83;16.48;;;-2.20;99.90;;;;;;6188014;23;20136;-85
2022/11/27 04:55:15;;;;;;;29.15;16.30;;;-2.40;99.90;;;;;;6165484;23;20503;-86
2022/11/27 04:58:04;;;;;;;31.30;16.38;;;-2.40;99.90;;;;;;6185697;23;20025;-86
2022/11/27 05:00:51;;;;;;;31.75;17.05;;;-2.40;99.90;;;;;;6188869;23;20020;-85
2022/11/27 05:03:41;;;;;;;29.13;15.18;;;-2.50;99.90;;;;;;6186625;23;20024;-86
2022/11/27 05:06:32;;;;;;;32.03;16.10;;;-2.50;99.90;;;;;;6185116;23;20033;-85
2022/11/27 05:09:20;;;;;;;22.03;11.23;;;-2.50;99.90;;;;;;6166381;23;20025;-85
2022/11/27 05:12:08;;;;;;;45.38;20.02;;;-2.60;99.90;;;;;;6166910;23;20048;-86
2022/11/27 05:14:55;;;;;;;37.38;17.48;;;-2.60;99.90;;;;;;6188184;23;20036;-85
2022/11/27 05:17:50;;;;;;;38.35;18.45;;;-2.60;99.90;;;;;;6185843;23;20056;-86
2022/11/27 05:20:43;;;;;;;59.63;26.15;;;-2.50;99.90;;;;;;6188686;23;20025;-85
2022/11/27 05:23:32;;;;;;;49.55;24.25;;;-2.50;99.90;;;;;;6187066;23;20060;-86
2022/11/27 05:26:19;;;;;;;71.88;31.85;;;-2.50;99.90;;;;;;6191906;23;20320;-86
2022/11/27 05:29:08;;;;;;;61.08;28.52;;;-2.30;99.90;;;;;;6198211;23;20061;-86
2022/11/27 05:31:55;;;;;;;59.25;26.48;;;-2.20;99.90;;;;;;6205008;23;20049;-86
2022/11/27 05:34:45;;;;;;;52.78;22.40;;;-2.10;99.90;;;;;;6201421;23;20037;-84
2022/11/27 05:37:32;;;;;;;40.50;22.52;;;-2.10;99.90;;;;;;6214002;23;20040;-83
2022/11/27 05:40:19;;;;;;;52.75;23.85;;;-2.00;99.90;;;;;;6187009;23;20328;-85
2022/11/27 05:43:07;;;;;;;52.90;25.48;;;-1.90;99.90;;;;;;6201566;23;20025;-85
2022/11/27 05:45:54;;;;;;;51.28;24.08;;;-1.90;99.90;;;;;;6179977;23;20021;-86
2022/11/27 05:48:41;;;;;;;43.15;21.35;;;-1.90;99.90;;;;;;6198415;23;20087;-86
2022/11/27 05:51:28;;;;;;;44.67;20.58;;;-2.00;99.90;;;;;;6169067;23;20080;-86
2022/11/27 05:54:15;;;;;;;35.00;18.48;;;-2.00;99.90;;;;;;6190797;23;20031;-86
2022/11/27 05:57:05;;;;;;;45.88;20.00;;;-1.90;99.90;;;;;;6189985;23;20128;-86
2022/11/27 05:59:52;;;;;;;35.78;17.80;;;-1.80;99.90;;;;;;6166723;23;20021;-85
2022/11/27 06:02:39;;;;;;;41.33;18.35;;;-1.80;99.90;;;;;;6188612;23;20083;-86
2022/11/27 06:05:27;;;;;;;41.63;19.85;;;-1.70;99.90;;;;;;6189095;23;20440;-86
2022/11/27 06:08:14;;;;;;;40.58;19.20;;;-1.60;99.90;;;;;;6189415;23;20111;-85
2022/11/27 06:11:12;;;;;;;47.03;22.10;;;-1.60;99.90;;;;;;6190881;22;20087;-85
2022/11/27 06:14:00;;;;;;;44.22;22.70;;;-1.50;99.90;;;;;;6166163;23;20310;-86
2022/11/27 06:16:51;;;;;;;42.35;21.15;;;-1.40;99.90;;;;;;6189671;23;20025;-85
2022/11/27 06:19:38;;;;;;;47.60;19.92;;;-1.40;99.90;;;;;;6189725;23;20328;-86
2022/11/27 06:22:26;;;;;;;42.75;18.95;;;-1.40;99.90;;;;;;6188551;23;20035;-86
2022/11/27 06:25:13;;;;;;;44.42;20.17;;;-1.30;99.90;;;;;;6189546;23;20021;-85
2022/11/27 06:28:00;;;;;;;40.78;19.85;;;-1.30;99.90;;;;;;6188307;23;20053;-87
2022/11/27 06:30:47;;;;;;;41.95;20.38;;;-1.30;99.90;;;;;;6189439;23;20025;-86
2022/11/27 06:33:34;;;;;;;46.75;19.48;;;-1.40;99.90;;;;;;6188311;23;20112;-87
2022/11/27 06:36:25;;;;;;;59.80;23.75;;;-1.50;99.90;;;;;;6188704;23;20160;-86
2022/11/27 06:39:12;;;;;;;48.83;20.63;;;-1.50;99.90;;;;;;6189702;23;20025;-86
2022/11/27 06:42:00;;;;;;;40.55;19.35;;;-1.40;99.90;;;;;;6187733;23;20025;-86
2022/11/27 06:44:47;;;;;;;42.92;20.88;;;-1.40;99.90;;;;;;6187816;23;20032;-85
2022/11/27 06:47:36;;;;;;;44.20;20.02;;;-1.40;99.90;;;;;;6166098;23;20033;-85
2022/11/27 06:50:25;;;;;;;47.05;20.83;;;-1.40;99.90;;;;;;6189048;23;20041;-86
2022/11/27 06:53:12;;;;;;;44.78;20.70;;;-1.30;99.90;;;;;;6184060;23;20052;-85
2022/11/27 06:56:09;;;;;;;41.33;20.55;;;-1.20;99.90;;;;;;6186732;23;20033;-87
2022/11/27 06:58:58;;;;;;;43.92;19.25;;;-1.20;99.90;;;;;;6185257;23;20032;-86
2022/11/27 07:01:46;;;;;;;45.95;20.08;;;-1.10;99.90;;;;;;6184326;23;20039;-85
2022/11/27 07:04:33;;;;;;;40.20;20.15;;;-1.10;99.90;;;;;;6185127;23;20028;-84
2022/11/27 07:07:20;;;;;;;46.03;20.33;;;-1.10;99.90;;;;;;6189303;23;20033;-86
2022/11/27 07:10:08;;;;;;;54.25;23.70;;;-1.00;99.90;;;;;;6188293;23;20339;-85
2022/11/27 07:12:55;;;;;;;45.67;21.95;;;-0.90;99.90;;;;;;6187943;23;20087;-85
2022/11/27 07:15:42;;;;;;;43.50;20.58;;;-0.80;99.90;;;;;;6187390;23;20097;-86
2022/11/27 07:18:33;;;;;;;36.00;19.08;;;-0.80;99.90;;;;;;6188135;23;20025;-86
2022/11/27 07:21:21;;;;;;;36.58;17.65;;;-0.60;99.90;;;;;;6186860;23;20156;-86
2022/11/27 07:24:08;;;;;;;37.30;16.73;;;-0.60;99.90;;;;;;6188296;23;20433;-85
2022/11/27 07:26:56;;;;;;;75.40;27.10;;;-0.50;99.90;;;;;;6186698;23;20029;-85
2022/11/27 07:29:44;;;;;;;113.25;43.80;;;-0.40;99.90;;;;;;6188492;23;20029;-86
2022/11/27 07:32:32;;;;;;;95.32;37.13;;;-0.50;99.90;;;;;;6187997;23;20025;-85
2022/11/27 07:35:19;;;;;;;94.93;38.33;;;-0.50;99.90;;;;;;6189544;23;20025;-85
2022/11/27 07:38:12;;;;;;;83.65;34.80;;;-0.60;99.90;;;;;;6188355;23;20025;-85
2022/11/27 07:41:00;;;;;;;88.05;34.70;;;-0.50;99.90;;;;;;6189867;23;20355;-87
2022/11/27 07:43:47;;;;;;;72.57;31.88;;;-0.40;99.90;;;;;;6167562;23;20105;-87
2022/11/27 07:46:35;;;;;;;56.63;27.02;;;-0.30;99.90;;;;;;6189168;23;20029;-86
2022/11/27 07:49:24;;;;;;;59.58;27.92;;;-0.10;99.90;;;;;;6188304;23;20065;-86
2022/11/27 07:52:11;;;;;;;52.88;25.83;;;0.00;99.90;;;;;;6183982;23;20029;-85
2022/11/27 07:55:01;;;;;;;53.50;26.80;;;0.10;99.90;;;;;;6184171;23;20093;-86
2022/11/27 07:57:48;;;;;;;50.45;22.02;;;0.20;99.90;;;;;;6188406;23;20035;-87
2022/11/27 08:00:35;;;;;;;48.58;24.70;;;0.20;99.90;;;;;;6165223;23;20025;-86
2022/11/27 08:03:25;;;;;;;50.95;25.50;;;0.20;99.90;;;;;;6189381;23;20032;-86
2022/11/27 08:06:24;;;;;;;47.35;25.00;;;0.30;99.90;;;;;;6187926;23;20028;-85
2022/11/27 08:09:14;;;;;;;56.22;27.30;;;0.40;99.90;;;;;;6187548;23;20075;-85
2022/11/27 08:12:01;;;;;;;48.90;26.58;;;0.50;99.90;;;;;;6185694;23;20100;-87
2022/11/27 08:14:48;;;;;;;53.25;26.63;;;0.50;99.90;;;;;;6187782;23;20017;-86
2022/11/27 08:17:35;;;;;;;54.95;26.85;;;0.80;99.90;;;;;;6186703;23;20028;-88
2022/11/27 08:20:23;;;;;;;60.72;28.65;;;1.10;99.90;;;;;;6188756;23;20029;-87
2022/11/27 08:23:12;;;;;;;46.95;23.90;;;1.20;99.90;;;;;;6188351;23;20135;-86
2022/11/27 08:26:03;;;;;;;55.95;26.70;;;1.40;99.90;;;;;;6186115;23;20161;-86
2022/11/27 08:28:54;;;;;;;67.93;31.33;;;1.70;99.90;;;;;;6183951;23;20029;-86
2022/11/27 08:31:53;;;;;;;67.43;35.22;;;2.00;99.90;;;;;;6187976;23;20032;-85
2022/11/27 08:55:17;;;;;;;39.40;24.80;;;3.10;99.90;;;;;;6038323;23;20019;-85
2022/11/27 08:58:57;;;;;;;42.95;23.73;;;3.20;99.90;;;;;;6156211;23;20031;-84
2022/11/27 09:52:20;;;;;;;20.80;6.97;;;5.90;99.90;;;;;;5959602;23;20020;-84
2022/11/27 09:55:25;;;;;;;9.25;5.28;;;6.20;99.90;;;;;;6099347;23;20050;-84
2022/11/27 09:58:42;;;;;;;9.52;6.35;;;6.10;99.90;;;;;;6115349;23;20108;-83
2022/11/27 10:52:07;;;;;;;7.00;2.85;;;11.60;99.90;;;;;;6095916;23;20014;-86
2022/11/27 12:29:45;;;;;;;6.25;2.50;;;16.30;67.50;;;;;;6244576;23;20004;-83
2022/11/27 13:06:37;;;;;;;2.63;2.03;;;16.80;21.70;;;;;;5984776;23;20016;-83
2022/11/27 13:27:07;;;;;;;;;;;;;;;;;;;;;
2022/11/27 14:03:37;;;;;;;5.75;3.10;;;8.80;99.90;;;;;;6163932;22;20287;-84
2022/11/27 14:07:02;;;;;;;5.57;3.25;;;8.60;99.90;;;;;;6248707;23;20081;-83
2022/11/27 14:09:57;;;;;;;4.00;3.00;;;8.30;99.90;;;;;;6250090;22;20082;-83
2022/11/27 14:13:06;;;;;;;6.15;3.30;;;8.00;99.90;;;;;;6247415;23;20020;-82
2022/11/27 14:16:00;;;;;;;4.25;3.10;;;7.80;99.90;;;;;;6248232;23;20031;-82
2022/11/27 14:18:52;;;;;;;6.10;3.40;;;7.70;99.90;;;;;;6246542;23;20020;-82
2022/11/27 14:21:42;;;;;;;4.70;3.50;;;7.60;99.90;;;;;;6249464;22;20039;-83
2022/11/27 14:24:42;;;;;;;8.27;3.88;;;7.50;99.90;;;;;;6248338;23;20082;-82
2022/11/27 14:27:34;;;;;;;6.38;3.90;;;7.30;99.90;;;;;;6247355;23;20024;-82
2022/11/27 14:30:32;;;;;;;6.50;3.67;;;7.40;99.90;;;;;;6249332;22;20058;-82
2022/11/27 14:33:22;;;;;;;8.77;4.95;;;7.40;99.90;;;;;;6247452;23;20444;-81
2022/11/27 14:36:22;;;;;;;9.18;5.20;;;7.20;99.90;;;;;;6248062;23;20034;-82
2022/11/27 14:39:26;;;;;;;9.93;5.35;;;7.00;99.90;;;;;;6248362;23;20332;-81
2022/11/27 14:42:24;;;;;;;11.82;7.50;;;6.80;99.90;;;;;;6250031;23;20028;-82
2022/11/27 14:45:19;;;;;;;7.63;5.25;;;6.70;99.90;;;;;;6252770;22;20032;-84
2022/11/27 14:48:14;;;;;;;5.43;4.30;;;6.60;99.90;;;;;;6249170;23;20058;-83
2022/11/27 14:51:02;;;;;;;8.73;3.95;;;6.50;99.90;;;;;;6249968;22;20028;-83
2022/11/27 14:54:10;;;;;;;8.10;4.60;;;6.40;99.90;;;;;;6249939;23;20075;-84
2022/11/27 14:56:57;;;;;;;7.18;3.67;;;6.40;99.90;;;;;;6249613;23;20059;-81
2022/11/27 14:59:47;;;;;;;6.00;3.80;;;6.30;99.90;;;;;;6250754;23;20465;-83
2022/11/27 15:02:34;;;;;;;6.72;3.95;;;6.30;99.90;;;;;;6254002;22;20028;-84
2022/11/27 15:05:27;;;;;;;12.07;6.13;;;6.30;99.90;;;;;;6250547;23;20102;-84
2022/11/27 15:08:14;;;;;;;9.52;5.90;;;6.20;99.90;;;;;;6248608;23;20036;-84
2022/11/27 15:11:03;;;;;;;10.27;5.20;;;6.20;99.90;;;;;;6246354;23;20099;-84
2022/11/27 15:13:54;;;;;;;9.55;5.47;;;6.20;99.90;;;;;;6245871;23;20673;-83
2022/11/27 15:16:50;;;;;;;8.70;5.50;;;6.10;99.90;;;;;;6248065;23;20019;-82
2022/11/27 15:19:42;;;;;;;6.85;5.13;;;6.10;99.90;;;;;;6247587;23;20050;-81
2022/11/27 15:22:32;;;;;;;8.85;5.70;;;6.00;99.90;;;;;;6249049;22;20035;-83
2022/11/27 15:25:39;;;;;;;9.18;4.85;;;5.90;99.90;;;;;;6246998;23;20301;-83
2022/11/27 15:28:40;;;;;;;8.75;5.43;;;5.90;99.90;;;;;;6248993;22;20308;-82
2022/11/27 15:31:32;;;;;;;10.68;5.35;;;5.80;99.90;;;;;;6246991;23;20400;-83
2022/11/27 15:34:26;;;;;;;13.55;6.00;;;5.80;99.90;;;;;;6247925;23;20047;-84
2022/11/27 15:37:27;;;;;;;27.10;14.02;;;5.80;99.90;;;;;;6249171;22;20380;-84
2022/11/27 15:40:30;;;;;;;16.25;10.30;;;5.70;1.00;;;;;;6248105;22;20024;-83
2022/11/27 15:43:19;;;;;;;16.02;8.77;;;5.70;1.00;;;;;;6247176;22;20028;-83
2022/11/27 15:46:11;;;;;;;13.70;8.27;;;5.70;1.00;;;;;;6245182;23;20416;-83
2022/11/27 15:49:01;;;;;;;14.40;10.27;;;5.70;1.00;;;;;;6248482;22;20495;-82
2022/11/27 15:51:49;;;;;;;15.75;9.23;;;5.60;1.00;;;;;;6248610;23;20028;-84
2022/11/27 15:54:37;;;;;;;18.23;11.52;;;5.60;1.00;;;;;;6246248;23;20024;-84
2022/11/27 15:57:28;;;;;;;17.65;9.45;;;5.60;1.00;;;;;;6245855;23;20400;-84
2022/11/27 16:00:16;;;;;;;15.95;9.70;;;5.60;1.00;;;;;;6245181;23;20047;-85
